aviador You're here:

EPMO Decoded Metar

in
Report Time2018-07-20 19:30:00
UTC Time2018-07-20 20:02:29
Flight Rules vfr VFR
Wind240° at 04 kt
W.Decomp.*RWY 26: 3.8 kt HW 1.4 kt LCW
W.Rank240° ranks 5
Current wind is below 240° avg. (8.8)
Visibility9999 m
Phenomena:N/A
Clouds:N/A
Expected CloudBase > 1,600 ft AGL from Temp-Dew spread
CeilingNone
Temp20°C
Dew Point16°C (78% RH)
QNH1011 hPa
Raw Report
EPMO 201930Z 24004KT CAVOK 20/16 Q1011=

Extra information for EPMO:More info

Social comments